createdAt,value
2016-07-31T00:00:35.715Z,-81
2016-07-31T00:01:35.778Z,-81
2016-07-31T00:02:35.691Z,-81
2016-07-31T00:03:35.632Z,-81
2016-07-31T00:04:35.864Z,-81
2016-07-31T00:05:35.791Z,-81
2016-07-31T00:06:35.819Z,-80
2016-07-31T00:07:35.721Z,-80
2016-07-31T00:08:35.726Z,-81
2016-07-31T00:09:35.810Z,-80
2016-07-31T00:10:35.795Z,-80
2016-07-31T00:11:35.718Z,-80
2016-07-31T00:12:35.654Z,-81
2016-07-31T00:13:35.666Z,-80
2016-07-31T00:14:35.804Z,-81
2016-07-31T00:15:35.673Z,-80
2016-07-31T00:16:35.733Z,-80
2016-07-31T00:17:35.835Z,-81
2016-07-31T00:18:35.755Z,-80
2016-07-31T00:19:35.838Z,-80
2016-07-31T00:20:35.765Z,-80
2016-07-31T00:21:35.753Z,-80
2016-07-31T00:22:35.780Z,-81
2016-07-31T00:23:35.765Z,-81
2016-07-31T00:24:35.840Z,-80
2016-07-31T00:25:35.696Z,-80
2016-07-31T00:26:35.895Z,-80
2016-07-31T00:27:35.775Z,-80
2016-07-31T00:28:35.767Z,-80
2016-07-31T00:29:35.857Z,-80
2016-07-31T00:30:35.726Z,-80
2016-07-31T00:31:35.865Z,-80
2016-07-31T00:32:35.936Z,-80
2016-07-31T00:33:35.709Z,-80
2016-07-31T00:34:35.885Z,-80
2016-07-31T00:35:35.878Z,-80
2016-07-31T00:36:35.807Z,-80
2016-07-31T00:37:35.737Z,-80
2016-07-31T00:38:35.870Z,-80
2016-07-31T00:39:35.725Z,-80
2016-07-31T00:40:35.968Z,-80
2016-07-31T00:41:35.840Z,-81
2016-07-31T00:42:35.881Z,-80
2016-07-31T00:43:35.894Z,-80
2016-07-31T00:44:35.804Z,-80
2016-07-31T00:45:35.902Z,-81
2016-07-31T00:46:35.976Z,-81
2016-07-31T00:47:35.832Z,-80
2016-07-31T00:48:35.915Z,-81
2016-07-31T00:49:35.895Z,-80
2016-07-31T00:50:35.849Z,-81
2016-07-31T00:51:35.930Z,-80
2016-07-31T00:52:35.977Z,-80
2016-07-31T00:53:35.997Z,-80
2016-07-31T00:54:35.853Z,-80
2016-07-31T00:55:35.778Z,-80
2016-07-31T00:56:35.848Z,-81
2016-07-31T00:57:35.866Z,-81
2016-07-31T00:58:35.858Z,-80
2016-07-31T00:59:35.795Z,-80
2016-07-31T01:00:35.868Z,-80
2016-07-31T01:01:35.975Z,-80
2016-07-31T01:02:35.908Z,-80
2016-07-31T01:03:35.872Z,-80
2016-07-31T01:04:35.807Z,-80
2016-07-31T01:05:35.964Z,-80
2016-07-31T01:06:35.974Z,-81
2016-07-31T01:07:35.822Z,-80
2016-07-31T01:08:35.981Z,-80
2016-07-31T01:09:35.809Z,-80
2016-07-31T01:10:36.037Z,-80
2016-07-31T01:11:36.057Z,-81
2016-07-31T01:12:35.907Z,-81
2016-07-31T01:13:35.997Z,-80
2016-07-31T01:14:35.909Z,-80
2016-07-31T01:15:35.899Z,-81
2016-07-31T01:16:35.917Z,-80
2016-07-31T01:17:35.916Z,-80
2016-07-31T01:18:35.937Z,-80
2016-07-31T01:19:35.915Z,-80
2016-07-31T01:20:35.993Z,-81
2016-07-31T01:21:35.869Z,-81
2016-07-31T01:22:35.997Z,-81
2016-07-31T01:23:36.095Z,-81
2016-07-31T01:24:36.003Z,-81
2016-07-31T01:25:35.860Z,-81
2016-07-31T01:26:36.055Z,-80
2016-07-31T01:27:36.035Z,-81
2016-07-31T01:28:35.947Z,-80
2016-07-31T01:29:35.965Z,-81
2016-07-31T01:30:36.032Z,-81
2016-07-31T01:31:35.976Z,-80
2016-07-31T01:32:36.030Z,-81
2016-07-31T01:33:36.107Z,-81
2016-07-31T01:34:36.102Z,-80
2016-07-31T01:35:36.111Z,-81
2016-07-31T01:36:35.891Z,-81
2016-07-31T01:37:36.051Z,-81
2016-07-31T01:38:36.092Z,-80
2016-07-31T01:39:36.133Z,-81
2016-07-31T01:40:36.145Z,-81
2016-07-31T01:41:36.124Z,-81
2016-07-31T01:42:36.018Z,-80
2016-07-31T01:43:36.123Z,-81
2016-07-31T01:44:35.910Z,-81
2016-07-31T01:45:36.126Z,-81
2016-07-31T01:46:35.996Z,-81
2016-07-31T01:47:36.087Z,-81
2016-07-31T01:48:36.004Z,-81
2016-07-31T01:49:36.156Z,-80
2016-07-31T01:50:36.117Z,-80
2016-07-31T01:51:35.956Z,-81
2016-07-31T01:52:36.095Z,-81
2016-07-31T01:53:36.086Z,-80
2016-07-31T01:54:35.950Z,-81
2016-07-31T01:55:36.171Z,-80
2016-07-31T01:56:36.023Z,-81
2016-07-31T01:57:36.035Z,-81
2016-07-31T01:58:36.118Z,-81
2016-07-31T01:59:36.124Z,-81
2016-07-31T02:00:36.050Z,-81
2016-07-31T02:01:36.107Z,-81
2016-07-31T02:02:36.044Z,-81
2016-07-31T02:03:36.123Z,-81
2016-07-31T02:04:36.154Z,-81
2016-07-31T02:05:36.122Z,-81
2016-07-31T02:06:36.055Z,-81
2016-07-31T02:07:36.057Z,-81
2016-07-31T02:08:36.133Z,-81
2016-07-31T02:09:36.227Z,-81
2016-07-31T02:10:35.999Z,-81
2016-07-31T02:11:36.137Z,-81
2016-07-31T02:12:36.081Z,-81
2016-07-31T02:13:36.152Z,-80
2016-07-31T02:14:36.152Z,-81
2016-07-31T02:15:36.250Z,-80
2016-07-31T02:16:36.146Z,-81
2016-07-31T02:17:36.170Z,-80
2016-07-31T02:18:36.014Z,-81
2016-07-31T02:19:36.094Z,-81
2016-07-31T02:20:36.169Z,-80
2016-07-31T02:21:36.175Z,-80
2016-07-31T02:22:36.173Z,-80
2016-07-31T02:23:36.265Z,-81
2016-07-31T02:24:36.189Z,-81
2016-07-31T02:25:36.028Z,-81
2016-07-31T02:26:36.196Z,-80
2016-07-31T02:27:36.251Z,-81
2016-07-31T02:28:36.272Z,-81
2016-07-31T02:29:36.134Z,-80
2016-07-31T02:30:36.052Z,-81
2016-07-31T02:31:36.121Z,-81
2016-07-31T02:32:36.069Z,-81
2016-07-31T02:33:36.212Z,-81
2016-07-31T02:34:36.195Z,-81
2016-07-31T02:35:36.065Z,-81
2016-07-31T02:36:36.203Z,-80
2016-07-31T02:37:36.184Z,-81
2016-07-31T02:38:36.219Z,-81
2016-07-31T02:39:36.079Z,-81
2016-07-31T02:40:36.306Z,-81
2016-07-31T02:41:36.235Z,-81
2016-07-31T02:42:36.263Z,-81
2016-07-31T02:43:36.077Z,-81
2016-07-31T02:44:36.118Z,-81
2016-07-31T02:45:36.249Z,-81
2016-07-31T02:46:36.251Z,-81
2016-07-31T02:47:36.168Z,-81
2016-07-31T02:48:36.166Z,-81
2016-07-31T02:49:36.169Z,-81
2016-07-31T02:50:36.096Z,-81
2016-07-31T02:51:36.187Z,-81
2016-07-31T02:52:36.255Z,-81
2016-07-31T02:53:36.122Z,-81
2016-07-31T02:54:36.256Z,-81
2016-07-31T02:55:36.194Z,-81
2016-07-31T02:56:36.263Z,-82
2016-07-31T02:57:36.317Z,-81
2016-07-31T02:58:36.224Z,-81
2016-07-31T02:59:36.371Z,-81
2016-07-31T03:00:36.276Z,-82
2016-07-31T03:01:36.204Z,-81
2016-07-31T03:02:36.202Z,-81
2016-07-31T03:03:36.145Z,-82
2016-07-31T03:04:36.224Z,-81
2016-07-31T03:05:36.192Z,-81
2016-07-31T03:06:36.225Z,-81
2016-07-31T03:07:36.216Z,-81
2016-07-31T03:08:36.302Z,-81
2016-07-31T03:09:36.257Z,-81
2016-07-31T03:10:36.154Z,-82
2016-07-31T03:11:36.239Z,-81
2016-07-31T03:12:36.311Z,-81
2016-07-31T03:13:36.262Z,-81
2016-07-31T03:14:36.306Z,-81
2016-07-31T03:15:36.323Z,-81
2016-07-31T03:16:36.241Z,-81
2016-07-31T03:17:36.263Z,-81
2016-07-31T03:18:36.321Z,-81
2016-07-31T03:19:36.246Z,-81
2016-07-31T03:20:36.187Z,-81
2016-07-31T03:21:36.413Z,-81
2016-07-31T03:22:36.346Z,-81
2016-07-31T03:23:36.290Z,-82
2016-07-31T03:24:36.369Z,-81
2016-07-31T03:25:36.959Z,-81
2016-07-31T03:26:36.356Z,-81
2016-07-31T03:27:36.329Z,-82
2016-07-31T03:28:36.298Z,-81
2016-07-31T03:29:36.307Z,-81
2016-07-31T03:30:36.365Z,-82
2016-07-31T03:31:36.445Z,-81
2016-07-31T03:32:36.374Z,-81
2016-07-31T03:33:36.225Z,-81
2016-07-31T03:34:36.470Z,-81
2016-07-31T03:35:36.467Z,-81
2016-07-31T03:36:36.371Z,-81
2016-07-31T03:37:36.389Z,-81
2016-07-31T03:38:36.392Z,-81
2016-07-31T03:39:36.231Z,-81
2016-07-31T03:40:36.395Z,-81
2016-07-31T03:41:37.121Z,-81
2016-07-31T03:42:36.402Z,-81
2016-07-31T03:44:36.395Z,-81
2016-07-31T03:45:36.482Z,-82
2016-07-31T03:46:36.327Z,-81
2016-07-31T03:47:36.424Z,-81
2016-07-31T03:48:36.259Z,-81
2016-07-31T03:49:36.417Z,-81
2016-07-31T03:50:36.522Z,-81
2016-07-31T03:51:36.527Z,-81
2016-07-31T03:52:36.276Z,-81
2016-07-31T03:53:36.439Z,-81
2016-07-31T03:54:36.454Z,-81
2016-07-31T03:55:36.348Z,-81
2016-07-31T03:56:36.461Z,-81
2016-07-31T03:57:37.452Z,-81
2016-07-31T03:59:36.450Z,-81
2016-07-31T04:00:36.371Z,-81
2016-07-31T04:01:36.527Z,-81
2016-07-31T04:02:36.315Z,-81
2016-07-31T04:03:36.539Z,-81
2016-07-31T04:04:36.390Z,-81
2016-07-31T04:05:36.553Z,-81
2016-07-31T04:06:36.307Z,-81
2016-07-31T04:07:36.548Z,-81
2016-07-31T04:08:36.493Z,-81
2016-07-31T04:09:36.323Z,-81
2016-07-31T04:10:36.426Z,-81
2016-07-31T04:11:36.585Z,-81
2016-07-31T04:12:36.499Z,-81
2016-07-31T04:14:36.506Z,-82
2016-07-31T04:15:36.431Z,-81
2016-07-31T04:16:36.459Z,-81
2016-07-31T04:17:36.486Z,-81
2016-07-31T04:18:36.545Z,-81
2016-07-31T04:19:36.438Z,-81
2016-07-31T04:20:36.592Z,-81
2016-07-31T04:21:36.527Z,-81
2016-07-31T04:22:36.514Z,-81
2016-07-31T04:23:36.525Z,-81
2016-07-31T04:24:36.517Z,-82
2016-07-31T04:25:36.446Z,-81
2016-07-31T04:26:36.541Z,-81
2016-07-31T04:27:36.479Z,-81
2016-07-31T04:28:36.444Z,-81
2016-07-31T04:29:37.634Z,-81
2016-07-31T04:30:36.522Z,-81
2016-07-31T04:31:36.467Z,-81
2016-07-31T04:32:36.607Z,-81
2016-07-31T04:33:36.613Z,-81
2016-07-31T04:34:36.619Z,-81
2016-07-31T04:35:36.567Z,-81
2016-07-31T04:36:36.479Z,-81
2016-07-31T04:37:36.490Z,-81
2016-07-31T04:38:36.506Z,-82
2016-07-31T04:39:36.482Z,-81
2016-07-31T04:40:36.410Z,-82
2016-07-31T04:41:36.587Z,-81
2016-07-31T04:42:36.494Z,-81
2016-07-31T04:43:36.589Z,-81
2016-07-31T04:44:36.573Z,-81
2016-07-31T04:45:37.526Z,-81
2016-07-31T04:46:36.507Z,-81
2016-07-31T04:47:36.590Z,-81
2016-07-31T04:48:36.465Z,-81
2016-07-31T04:49:36.717Z,-81
2016-07-31T04:50:36.561Z,-92
2016-07-31T04:51:36.562Z,-87
2016-07-31T04:52:36.531Z,-87
2016-07-31T04:53:36.444Z,-87
2016-07-31T04:54:36.675Z,-87
2016-07-31T04:55:36.613Z,-86
2016-07-31T04:56:36.545Z,-87
2016-07-31T04:57:36.538Z,-87
2016-07-31T04:58:36.533Z,-87
2016-07-31T04:59:36.548Z,-87
2016-07-31T05:00:36.484Z,-87
2016-07-31T05:01:37.289Z,-87
2016-07-31T05:02:36.705Z,-87
2016-07-31T05:03:36.642Z,-87
2016-07-31T05:04:36.584Z,-87
2016-07-31T05:05:36.571Z,-87
2016-07-31T05:06:36.585Z,-87
2016-07-31T05:07:36.570Z,-86
2016-07-31T05:08:36.658Z,-87
2016-07-31T05:09:36.599Z,-87
2016-07-31T05:10:36.665Z,-86
2016-07-31T05:11:36.581Z,-87
2016-07-31T05:12:36.574Z,-87
2016-07-31T05:13:36.661Z,-86
2016-07-31T05:14:36.621Z,-87
2016-07-31T05:15:36.662Z,-86
2016-07-31T05:16:36.676Z,-87
2016-07-31T05:17:37.305Z,-88
2016-07-31T05:18:36.634Z,-86
2016-07-31T05:19:36.754Z,-87
2016-07-31T05:20:36.706Z,-86
2016-07-31T05:21:36.684Z,-87
2016-07-31T05:22:36.695Z,-87
2016-07-31T05:23:36.686Z,-86
2016-07-31T05:24:36.695Z,-87
2016-07-31T05:25:36.691Z,-87
2016-07-31T05:26:36.697Z,-87
2016-07-31T05:27:36.641Z,-87
2016-07-31T05:28:36.688Z,-87
2016-07-31T05:29:36.648Z,-87
2016-07-31T05:30:36.706Z,-86
2016-07-31T05:31:36.720Z,-87
2016-07-31T05:32:36.643Z,-87
2016-07-31T05:33:37.312Z,-87
2016-07-31T05:34:36.797Z,-87
2016-07-31T05:35:36.744Z,-87
2016-07-31T05:36:36.738Z,-87
2016-07-31T05:37:36.671Z,-86
2016-07-31T05:38:36.760Z,-86
2016-07-31T05:39:36.622Z,-86
2016-07-31T05:40:36.597Z,-86
2016-07-31T05:41:36.673Z,-86
2016-07-31T05:42:36.777Z,-86
2016-07-31T05:43:36.682Z,-86
2016-07-31T05:44:36.677Z,-86
2016-07-31T05:45:36.689Z,-87
2016-07-31T05:46:36.753Z,-86
2016-07-31T05:47:36.841Z,-87
2016-07-31T05:48:36.698Z,-86
2016-07-31T05:49:37.785Z,-86
2016-07-31T05:50:36.797Z,-86
2016-07-31T05:51:36.651Z,-86
2016-07-31T05:52:36.680Z,-86
2016-07-31T05:53:36.636Z,-86
2016-07-31T05:54:36.851Z,-86
2016-07-31T05:55:36.636Z,-86
2016-07-31T05:56:36.776Z,-86
2016-07-31T05:57:36.764Z,-86
2016-07-31T05:58:36.796Z,-86
2016-07-31T05:59:36.741Z,-86
2016-07-31T06:00:36.867Z,-87
2016-07-31T06:01:36.638Z,-86
2016-07-31T06:02:36.743Z,-87
2016-07-31T06:03:36.715Z,-86
2016-07-31T06:04:36.807Z,-87
2016-07-31T06:05:37.445Z,-86
2016-07-31T06:06:36.736Z,-86
2016-07-31T06:07:36.909Z,-87
2016-07-31T06:08:36.823Z,-86
2016-07-31T06:09:36.828Z,-86
2016-07-31T06:10:36.761Z,-86
2016-07-31T06:11:36.837Z,-87
2016-07-31T06:12:36.754Z,-87
2016-07-31T06:13:36.759Z,-87
2016-07-31T06:14:36.837Z,-86
2016-07-31T06:15:36.835Z,-86
2016-07-31T06:16:36.915Z,-86
2016-07-31T06:17:36.838Z,-86
2016-07-31T06:18:36.763Z,-86
2016-07-31T06:19:36.740Z,-86
2016-07-31T06:20:36.705Z,-86
2016-07-31T06:21:37.803Z,-86
2016-07-31T06:22:36.926Z,-86
2016-07-31T06:23:36.722Z,-86
2016-07-31T06:24:36.881Z,-86
2016-07-31T06:25:36.864Z,-86
2016-07-31T06:26:36.869Z,-86
2016-07-31T06:27:36.896Z,-87
2016-07-31T06:28:37.073Z,-87
2016-07-31T06:29:36.915Z,-86
2016-07-31T06:30:36.965Z,-86
2016-07-31T06:31:36.936Z,-86
2016-07-31T06:32:36.959Z,-87
2016-07-31T06:33:36.823Z,-87
2016-07-31T06:34:36.739Z,-86
2016-07-31T06:35:36.982Z,-86
2016-07-31T06:36:36.832Z,-86
2016-07-31T06:37:37.402Z,-86
2016-07-31T06:38:36.969Z,-87
2016-07-31T06:39:36.846Z,-86
2016-07-31T06:40:37.065Z,-86
2016-07-31T06:41:36.781Z,-86
2016-07-31T06:42:36.913Z,-87
2016-07-31T06:43:37.000Z,-87
2016-07-31T06:44:36.911Z,-86
2016-07-31T06:45:36.850Z,-86
2016-07-31T06:46:36.938Z,-86
2016-07-31T06:47:36.862Z,-86
2016-07-31T06:48:36.932Z,-86
2016-07-31T06:49:36.933Z,-86
2016-07-31T06:50:36.947Z,-86
2016-07-31T06:51:36.938Z,-86
2016-07-31T06:52:36.971Z,-86
2016-07-31T06:53:37.274Z,-86
2016-07-31T06:54:37.043Z,-86
2016-07-31T06:55:37.038Z,-86
2016-07-31T06:56:37.032Z,-86
2016-07-31T06:57:36.949Z,-85
2016-07-31T06:58:37.044Z,-86
2016-07-31T06:59:36.805Z,-86
2016-07-31T07:00:36.892Z,-86
2016-07-31T07:01:36.983Z,-86
2016-07-31T07:02:36.961Z,-86
2016-07-31T07:03:37.055Z,-86
2016-07-31T07:04:36.915Z,-86
2016-07-31T07:05:36.898Z,-86
2016-07-31T07:06:36.827Z,-86
2016-07-31T07:07:37.027Z,-86
2016-07-31T07:08:36.902Z,-86
2016-07-31T07:09:37.492Z,-86
2016-07-31T07:10:36.937Z,-85
2016-07-31T07:11:36.938Z,-86
2016-07-31T07:12:36.917Z,-86
2016-07-31T07:13:37.077Z,-86
2016-07-31T07:14:36.997Z,-86
2016-07-31T07:15:36.996Z,-85
2016-07-31T07:16:36.963Z,-85
2016-07-31T07:17:36.939Z,-86
2016-07-31T07:18:36.864Z,-85
2016-07-31T07:19:36.952Z,-86
2016-07-31T07:20:37.051Z,-85
2016-07-31T07:21:37.048Z,-86
2016-07-31T07:22:36.949Z,-86
2016-07-31T07:23:37.054Z,-85
2016-07-31T07:24:36.986Z,-86
2016-07-31T07:25:37.109Z,-85
2016-07-31T07:26:37.059Z,-86
2016-07-31T07:27:37.041Z,-86
2016-07-31T07:28:37.166Z,-85
2016-07-31T07:29:36.860Z,-85
2016-07-31T07:30:37.000Z,-85
2016-07-31T07:31:37.063Z,-85
2016-07-31T07:32:37.011Z,-86
2016-07-31T07:33:37.133Z,-86
2016-07-31T07:34:36.912Z,-85
2016-07-31T07:35:37.063Z,-86
2016-07-31T07:36:36.911Z,-86
2016-07-31T07:37:37.008Z,-86
2016-07-31T07:38:37.089Z,-87
2016-07-31T07:39:37.000Z,-86
2016-07-31T07:40:37.102Z,-85
2016-07-31T07:41:37.064Z,-87
2016-07-31T07:42:37.109Z,-86
2016-07-31T07:43:36.939Z,-87
2016-07-31T07:44:37.056Z,-86
2016-07-31T07:45:37.034Z,-86
2016-07-31T07:46:37.028Z,-86
2016-07-31T07:47:37.111Z,-86
2016-07-31T07:48:37.102Z,-86
2016-07-31T07:49:37.016Z,-86
2016-07-31T07:50:37.041Z,-87
2016-07-31T07:51:37.636Z,-86
2016-07-31T07:52:37.119Z,-86
2016-07-31T07:53:37.097Z,-87
2016-07-31T07:54:37.201Z,-86
2016-07-31T07:55:37.140Z,-87
2016-07-31T07:56:37.721Z,-86
2016-07-31T07:57:37.177Z,-86
2016-07-31T07:58:37.131Z,-86
2016-07-31T07:59:37.011Z,-86
2016-07-31T08:00:37.057Z,-86
2016-07-31T08:01:37.157Z,-86
2016-07-31T08:02:37.223Z,-86
2016-07-31T08:03:37.140Z,-86
2016-07-31T08:04:37.077Z,-86
2016-07-31T08:05:37.265Z,-86
2016-07-31T08:06:37.078Z,-86
2016-07-31T08:07:37.086Z,-86
2016-07-31T08:08:37.082Z,-87
2016-07-31T08:09:37.163Z,-86
2016-07-31T08:10:37.013Z,-86
2016-07-31T08:11:37.208Z,-86
2016-07-31T08:12:37.171Z,-86
2016-07-31T08:13:37.187Z,-85
2016-07-31T08:15:37.181Z,-86
2016-07-31T08:16:37.099Z,-86
2016-07-31T08:17:37.021Z,-86
2016-07-31T08:18:37.248Z,-87
2016-07-31T08:19:37.122Z,-86
2016-07-31T08:20:37.203Z,-87
2016-07-31T08:21:37.148Z,-86
2016-07-31T08:22:37.122Z,-86
2016-07-31T08:23:37.279Z,-86
2016-07-31T08:24:37.305Z,-86
2016-07-31T08:25:37.203Z,-86
2016-07-31T08:26:37.299Z,-86
2016-07-31T08:27:37.141Z,-86
2016-07-31T08:28:37.141Z,-86
2016-07-31T08:30:37.162Z,-86
2016-07-31T08:31:37.330Z,-86
2016-07-31T08:32:37.173Z,-86
2016-07-31T08:33:37.163Z,-86
2016-07-31T08:34:37.307Z,-86
2016-07-31T08:35:37.288Z,-86
2016-07-31T08:36:37.334Z,-86
2016-07-31T08:37:37.171Z,-86
2016-07-31T08:38:37.262Z,-86
2016-07-31T08:39:37.180Z,-86
2016-07-31T08:40:37.183Z,-87
2016-07-31T08:41:37.188Z,-87
2016-07-31T08:42:37.223Z,-88
2016-07-31T08:43:37.191Z,-87
2016-07-31T08:45:37.154Z,-86
2016-07-31T08:46:37.836Z,-86
2016-07-31T08:47:37.269Z,-86
2016-07-31T08:48:37.309Z,-86
2016-07-31T08:49:37.348Z,-86
2016-07-31T08:50:37.195Z,-85
2016-07-31T08:51:37.287Z,-86
2016-07-31T08:52:37.300Z,-86
2016-07-31T08:53:37.123Z,-86
2016-07-31T08:54:37.367Z,-86
2016-07-31T08:55:37.222Z,-86
2016-07-31T08:56:37.343Z,-85
2016-07-31T08:57:37.227Z,-86
2016-07-31T08:58:37.321Z,-86
2016-07-31T08:59:37.296Z,-86
2016-07-31T09:00:37.313Z,-86
2016-07-31T09:01:37.322Z,-86
2016-07-31T09:02:37.241Z,-86
2016-07-31T09:03:37.376Z,-86
2016-07-31T09:04:37.344Z,-86
2016-07-31T09:05:37.316Z,-86
2016-07-31T09:06:37.334Z,-86
2016-07-31T09:07:37.265Z,-86
2016-07-31T09:08:37.186Z,-86
2016-07-31T09:09:37.354Z,-86
2016-07-31T09:10:37.333Z,-86
2016-07-31T09:11:37.420Z,-86
2016-07-31T09:12:37.262Z,-87
2016-07-31T09:13:37.428Z,-86
2016-07-31T09:14:37.270Z,-86
2016-07-31T09:15:37.291Z,-86
2016-07-31T09:16:37.199Z,-86
2016-07-31T09:17:37.371Z,-86
2016-07-31T09:18:37.217Z,-86
2016-07-31T09:19:37.295Z,-86
2016-07-31T09:20:37.350Z,-86
2016-07-31T09:21:37.303Z,-86
2016-07-31T09:22:37.320Z,-86
2016-07-31T09:23:37.381Z,-86
2016-07-31T09:24:37.323Z,-86
2016-07-31T09:25:37.386Z,-86
2016-07-31T09:26:37.354Z,-86
2016-07-31T09:27:37.389Z,-87
2016-07-31T09:28:37.304Z,-86
2016-07-31T09:29:37.499Z,-86
2016-07-31T09:30:37.344Z,-86
2016-07-31T09:31:37.337Z,-87
2016-07-31T09:32:37.491Z,-86
2016-07-31T09:33:37.439Z,-86
2016-07-31T09:34:37.339Z,-86
2016-07-31T09:35:37.336Z,-86
2016-07-31T09:36:37.387Z,-86
2016-07-31T09:37:37.331Z,-86
2016-07-31T09:38:37.340Z,-86
2016-07-31T09:39:37.531Z,-86
2016-07-31T09:40:37.336Z,-86
2016-07-31T09:41:37.421Z,-86
2016-07-31T09:42:37.370Z,-86
2016-07-31T09:43:37.508Z,-86
2016-07-31T09:44:37.524Z,-86
2016-07-31T09:45:37.351Z,-86
2016-07-31T09:46:37.466Z,-86
2016-07-31T09:47:37.357Z,-86
2016-07-31T09:48:37.373Z,-86
2016-07-31T09:49:37.292Z,-86
2016-07-31T09:50:37.383Z,-86
2016-07-31T09:51:37.436Z,-86
2016-07-31T09:52:37.318Z,-86
2016-07-31T09:53:37.536Z,-86
2016-07-31T09:54:37.467Z,-86
2016-07-31T09:55:37.399Z,-86
2016-07-31T09:56:37.546Z,-86
2016-07-31T09:57:37.326Z,-86
2016-07-31T09:58:37.413Z,-86
2016-07-31T09:59:37.401Z,-86
2016-07-31T10:00:37.347Z,-86
2016-07-31T10:01:37.417Z,-86
2016-07-31T10:02:37.335Z,-86
2016-07-31T10:03:37.417Z,-86
2016-07-31T10:04:37.519Z,-86
2016-07-31T10:05:37.419Z,-86
2016-07-31T10:06:37.441Z,-86
2016-07-31T10:07:37.415Z,-86
2016-07-31T10:08:37.510Z,-87
2016-07-31T10:09:37.350Z,-86
2016-07-31T10:10:38.395Z,-86
2016-07-31T10:11:37.443Z,-86
2016-07-31T10:12:37.508Z,-86
2016-07-31T10:13:37.636Z,-86
2016-07-31T10:14:37.451Z,-86
2016-07-31T10:15:37.541Z,-86
2016-07-31T10:16:37.388Z,-86
2016-07-31T10:17:37.602Z,-85
2016-07-31T10:18:37.594Z,-87
2016-07-31T10:19:37.485Z,-86
2016-07-31T10:20:37.623Z,-87
2016-07-31T10:21:37.605Z,-86
2016-07-31T10:22:37.395Z,-86
2016-07-31T10:23:37.403Z,-86
2016-07-31T10:24:37.581Z,-86
2016-07-31T10:25:37.499Z,-86
2016-07-31T10:26:37.406Z,-86
2016-07-31T10:27:37.481Z,-86
2016-07-31T10:28:37.586Z,-85
2016-07-31T10:29:37.602Z,-86
2016-07-31T10:30:37.745Z,-86
2016-07-31T10:31:37.659Z,-86
2016-07-31T10:32:37.667Z,-86
2016-07-31T10:33:37.485Z,-85
2016-07-31T10:34:37.590Z,-86
2016-07-31T10:35:37.522Z,-86
2016-07-31T10:36:37.423Z,-86
2016-07-31T10:37:37.522Z,-86
2016-07-31T10:38:37.452Z,-86
2016-07-31T10:39:37.667Z,-86
2016-07-31T10:40:37.595Z,-86
2016-07-31T10:41:37.535Z,-86
2016-07-31T10:42:37.453Z,-86
2016-07-31T10:43:37.613Z,-86
2016-07-31T10:44:37.676Z,-86
2016-07-31T10:45:37.457Z,-86
2016-07-31T10:46:37.595Z,-86
2016-07-31T10:47:37.620Z,-85
2016-07-31T10:48:38.196Z,-86
2016-07-31T10:49:37.551Z,-86
2016-07-31T10:50:37.549Z,-86
2016-07-31T10:51:37.624Z,-85
2016-07-31T10:52:37.544Z,-86
2016-07-31T10:53:37.635Z,-86
2016-07-31T10:54:37.652Z,-86
2016-07-31T10:55:37.732Z,-86
2016-07-31T10:56:37.680Z,-86
2016-07-31T10:57:37.739Z,-86
2016-07-31T10:58:37.645Z,-86
2016-07-31T10:59:37.670Z,-86
2016-07-31T11:00:37.662Z,-86
2016-07-31T11:01:37.579Z,-86
2016-07-31T11:02:37.658Z,-86
2016-07-31T11:03:37.613Z,-86
2016-07-31T11:04:37.703Z,-86
2016-07-31T11:05:37.595Z,-86
2016-07-31T11:06:37.606Z,-87
2016-07-31T11:07:37.675Z,-86
2016-07-31T11:08:37.683Z,-86
2016-07-31T11:09:37.612Z,-86
2016-07-31T11:10:37.627Z,-86
2016-07-31T11:11:37.614Z,-87
2016-07-31T11:12:37.690Z,-86
2016-07-31T11:13:37.639Z,-86
2016-07-31T11:14:37.553Z,-86
2016-07-31T11:15:37.583Z,-84
2016-07-31T11:16:37.719Z,-84
2016-07-31T11:17:37.804Z,-84
2016-07-31T11:18:37.647Z,-84
2016-07-31T11:19:37.714Z,-84
2016-07-31T11:20:37.636Z,-84
2016-07-31T11:21:37.740Z,-84
2016-07-31T11:22:37.708Z,-84
2016-07-31T11:23:37.736Z,-84
2016-07-31T11:24:37.742Z,-84
2016-07-31T11:25:37.762Z,-84
2016-07-31T11:26:37.683Z,-84
2016-07-31T11:27:37.745Z,-84
2016-07-31T11:28:37.766Z,-84
2016-07-31T11:29:37.760Z,-84
2016-07-31T11:30:37.938Z,-84
2016-07-31T11:31:37.854Z,-84
2016-07-31T11:32:37.607Z,-84
2016-07-31T11:33:37.683Z,-84
2016-07-31T11:34:37.692Z,-84
2016-07-31T11:35:37.773Z,-84
2016-07-31T11:36:37.679Z,-83
2016-07-31T11:37:37.780Z,-84
2016-07-31T11:38:37.776Z,-84
2016-07-31T11:39:37.781Z,-84
2016-07-31T11:40:37.759Z,-85
2016-07-31T11:41:37.706Z,-83
2016-07-31T11:42:37.774Z,-84
2016-07-31T11:43:37.651Z,-83
2016-07-31T11:44:37.786Z,-84
2016-07-31T11:45:37.795Z,-84
2016-07-31T11:46:37.836Z,-84
2016-07-31T11:47:37.805Z,-85
2016-07-31T11:48:37.726Z,-84
2016-07-31T11:49:37.802Z,-84
2016-07-31T11:50:37.727Z,-84
2016-07-31T11:51:37.739Z,-84
2016-07-31T11:52:37.831Z,-84
2016-07-31T11:53:37.743Z,-85
2016-07-31T11:54:37.692Z,-84
2016-07-31T11:55:37.817Z,-84
2016-07-31T11:56:37.825Z,-84
2016-07-31T11:57:37.841Z,-84
2016-07-31T11:58:37.831Z,-84
2016-07-31T11:59:37.897Z,-84
2016-07-31T12:01:37.690Z,-84
2016-07-31T12:02:37.757Z,-84
2016-07-31T12:03:37.864Z,-84
2016-07-31T12:04:37.696Z,-84
2016-07-31T12:05:37.942Z,-84
2016-07-31T12:06:37.871Z,-84
2016-07-31T12:07:37.977Z,-84
2016-07-31T12:08:37.955Z,-84
2016-07-31T12:09:37.718Z,-84
2016-07-31T12:10:37.697Z,-84
2016-07-31T12:11:37.882Z,-84
2016-07-31T12:12:37.869Z,-84
2016-07-31T12:13:37.834Z,-84
2016-07-31T12:14:37.946Z,-84
2016-07-31T12:16:37.906Z,-84
2016-07-31T12:17:37.791Z,-84
2016-07-31T12:18:37.807Z,-85
2016-07-31T12:19:37.748Z,-84
2016-07-31T12:20:37.979Z,-84
2016-07-31T12:21:37.817Z,-84
2016-07-31T12:22:37.812Z,-85
2016-07-31T12:23:37.866Z,-84
2016-07-31T12:24:37.751Z,-84
2016-07-31T12:25:37.916Z,-84
2016-07-31T12:26:37.991Z,-85
2016-07-31T12:27:37.759Z,-84
2016-07-31T12:28:37.854Z,-84
2016-07-31T12:29:37.917Z,-84
2016-07-31T12:31:38.002Z,-84
2016-07-31T12:32:37.875Z,-84
2016-07-31T12:33:37.926Z,-84
2016-07-31T12:34:38.007Z,-84
2016-07-31T12:35:37.854Z,-84
2016-07-31T12:36:37.938Z,-84
2016-07-31T12:37:37.942Z,-84
2016-07-31T12:38:37.802Z,-84
2016-07-31T12:39:37.854Z,-85
2016-07-31T12:40:37.866Z,-84
2016-07-31T12:41:37.873Z,-84
2016-07-31T12:42:38.006Z,-84
2016-07-31T12:43:37.878Z,-84
2016-07-31T12:44:37.967Z,-84
2016-07-31T12:45:37.960Z,-84
2016-07-31T12:46:37.973Z,-84
2016-07-31T12:47:37.989Z,-84
2016-07-31T12:48:37.904Z,-83
2016-07-31T12:49:37.997Z,-84
2016-07-31T12:50:37.986Z,-84
2016-07-31T12:51:37.998Z,-84
2016-07-31T12:52:37.919Z,-84
2016-07-31T12:53:37.985Z,-84
2016-07-31T12:54:38.005Z,-84
2016-07-31T12:55:38.012Z,-84
2016-07-31T12:56:38.000Z,-84
2016-07-31T12:57:37.923Z,-84
2016-07-31T12:58:37.929Z,-84
2016-07-31T12:59:38.010Z,-84
2016-07-31T13:00:37.967Z,-84
2016-07-31T13:01:38.033Z,-84
2016-07-31T13:02:38.017Z,-84
2016-07-31T13:03:38.005Z,-85
2016-07-31T13:04:37.931Z,-85
2016-07-31T13:05:38.025Z,-84
2016-07-31T13:06:38.039Z,-84
2016-07-31T13:07:38.038Z,-84
2016-07-31T13:08:37.963Z,-85
2016-07-31T13:09:37.988Z,-84
2016-07-31T13:10:37.993Z,-85
2016-07-31T13:11:38.122Z,-85
2016-07-31T13:12:37.978Z,-85
2016-07-31T13:13:38.056Z,-84
2016-07-31T13:14:38.051Z,-84
2016-07-31T13:15:38.168Z,-84
2016-07-31T13:16:38.043Z,-84
2016-07-31T13:17:38.167Z,-84
2016-07-31T13:18:37.996Z,-84
2016-07-31T13:19:38.152Z,-85
2016-07-31T13:20:38.049Z,-84
2016-07-31T13:21:37.926Z,-85
2016-07-31T13:22:37.986Z,-84
2016-07-31T13:23:37.915Z,-84
2016-07-31T13:24:38.196Z,-84
2016-07-31T13:25:38.014Z,-84
2016-07-31T13:26:38.018Z,-84
2016-07-31T13:27:38.023Z,-83
2016-07-31T13:28:38.006Z,-83
2016-07-31T13:29:38.008Z,-84
2016-07-31T13:30:38.212Z,-84
2016-07-31T13:31:38.025Z,-84
2016-07-31T13:32:38.093Z,-84
2016-07-31T13:33:38.224Z,-83
2016-07-31T13:34:38.141Z,-85
2016-07-31T13:35:38.303Z,-84
2016-07-31T13:36:38.118Z,-84
2016-07-31T13:37:38.113Z,-84
2016-07-31T13:38:37.985Z,-84
2016-07-31T13:39:38.049Z,-84
2016-07-31T13:40:38.207Z,-84
2016-07-31T13:41:38.200Z,-84
2016-07-31T13:42:38.034Z,-84
2016-07-31T13:43:38.057Z,-84
2016-07-31T13:44:38.127Z,-84
2016-07-31T13:45:38.150Z,-85
2016-07-31T13:46:38.198Z,-84
2016-07-31T13:47:38.056Z,-85
2016-07-31T13:48:38.160Z,-85
2016-07-31T13:49:37.997Z,-84
2016-07-31T13:50:38.105Z,-85
2016-07-31T13:51:38.098Z,-85
2016-07-31T13:52:38.136Z,-85
2016-07-31T13:53:38.160Z,-85
2016-07-31T13:54:38.147Z,-85
2016-07-31T13:55:38.241Z,-84